Thunderstorms From: 20-05-2018 05:00 Until: 21-05-2018 05:00 warning for: Thunderstorms Level: Yellow info button

Although rather usual in this region, locally or potentially dangerous phenomena are expected. (such as local winds, summer thunderstorms, rising streams or high waves) Be aware and pay attention to the latest weather updates, especially if you carry out activities exposed to weather or close to a stream or shoreline. 


Meteo18 Weather Cam more information Meteo18 Weather Cam


warning for Thunderstorms more information blitzortung!


Rain radar more information rain snow radar


Visit our other weather sites:

Template documentation
and downloads

And another site



Weather Underground History page Text

Daily Summary for February 8, 2017 Units:  Both    English   Metric
« Previous Day
Next Day »
Daily Weekly Monthly Yearly Custom
  High: Low: Average:
Temperature: TemperatureC °F /  -17.8 °C 3.0 °F /  -16.1 °C 4.9 °F /  -15.1 °C
Dew Point: DewpointC °F /  -17.8 °C 2.1 °F /  -16.6 °C 3.2 °F /  -16 °C
Humidity: Humidity % 78 % 89 %
Wind Speed: WindSpeedKMH mph /  0 km/h - 3.4 mph /  5.5 km/h
Wind Gust: WindSpeedGustKMH mph /  0 km/h - -
Wind:- - WNW
Pressure: PressurehPa in /  0 hPa 1018.5 in /  34486.4 hPa -
Precipitation: 0.5 in /  12.7 mm    
Historical Graphs
 
 
Tabular Data for February 8, 2017
Time Temperature Dew Point Pressure Wind Wind Speed Wind Gust Humidity Rainfall Rate (Hourly)
TemperatureC °F /  -17.8 °C DewpointC °F /  -17.8 °C PressurehPa in /  0 hPa Calm     Humidity % HourlyPrecipMM in /  0 mm
00:02 5.5 °F /  -14.7 °C 3.7 °F /  -15.7 °C 1018.5 in /  34486.4 hPa NW 1.6 mph /  2.6 km/h 4.8 mph /  7.7 km/h 88 % 0.0 in /  0 mm
00:07 5.5 °F /  -14.7 °C 3.7 °F /  -15.7 °C 1018.5 in /  34486.4 hPa NW 1.6 mph /  2.6 km/h 4.8 mph /  7.7 km/h 88 % 0.0 in /  0 mm
00:12 5.4 °F /  -14.8 °C 3.6 °F /  -15.8 °C 1018.5 in /  34486.4 hPa NNW 1.6 mph /  2.6 km/h 4.8 mph /  7.7 km/h 88 % 0.0 in /  0 mm
00:22 5.2 °F /  -14.9 °C 3.4 °F /  -15.9 °C 1018.8 in /  34496.6 hPa NNW 3.2 mph /  5.1 km/h 4.8 mph /  7.7 km/h 88 % 0.0 in /  0 mm
00:27 5.2 °F /  -14.9 °C 3.4 °F /  -15.9 °C 1018.8 in /  34496.6 hPa NW 3.2 mph /  5.1 km/h 4.8 mph /  7.7 km/h 88 % 0.0 in /  0 mm
00:32 5.2 °F /  -14.9 °C 3.4 °F /  -15.9 °C 1018.8 in /  34496.6 hPa NW 1.6 mph /  2.6 km/h 9.7 mph /  15.6 km/h 88 % 0.0 in /  0 mm
00:37 5.1 °F /  -14.9 °C 3.3 °F /  -15.9 °C 1018.8 in /  34496.6 hPa NW 3.2 mph /  5.1 km/h 9.7 mph /  15.6 km/h 88 % 0.0 in /  0 mm
00:42 5.1 °F /  -14.9 °C 3.3 °F /  -15.9 °C 1018.5 in /  34486.4 hPa NW 3.2 mph /  5.1 km/h 9.7 mph /  15.6 km/h 88 % 0.0 in /  0 mm
00:47 4.9 °F /  -15.1 °C 3.1 °F /  -16.1 °C 1018.8 in /  34496.6 hPa Calm   9.7 mph /  15.6 km/h 88 % 0.0 in /  0 mm
00:52 4.9 °F /  -15.1 °C 3.1 °F /  -16.1 °C 1018.8 in /  34496.6 hPa NW 4.8 mph /  7.7 km/h 8.0 mph /  12.9 km/h 88 % 0.0 in /  0 mm
00:57 4.9 °F /  -15.1 °C 3.1 °F /  -16.1 °C 1018.8 in /  34496.6 hPa Calm   6.4 mph /  10.3 km/h 88 % 0.0 in /  0 mm
01:02 4.9 °F /  -15.1 °C 3.1 °F /  -16.1 °C 1018.8 in /  34496.6 hPa NW 1.6 mph /  2.6 km/h 6.4 mph /  10.3 km/h 88 % 0.0 in /  0 mm
01:07 4.8 °F /  -15.1 °C 3.0 °F /  -16.1 °C 1018.8 in /  34496.6 hPa NNW 1.6 mph /  2.6 km/h 6.4 mph /  10.3 km/h 88 % 0.0 in /  0 mm
01:12 4.8 °F /  -15.1 °C 3.0 °F /  -16.1 °C 1018.8 in /  34496.6 hPa WNW 1.6 mph /  2.6 km/h 4.8 mph /  7.7 km/h 88 % 0.0 in /  0 mm
01:17 4.8 °F /  -15.1 °C 3.0 °F /  -16.1 °C 1018.8 in /  34496.6 hPa North 1.6 mph /  2.6 km/h 4.8 mph /  7.7 km/h 88 % 0.0 in /  0 mm
01:22 4.8 °F /  -15.1 °C 3.0 °F /  -16.1 °C 1018.8 in /  34496.6 hPa NNW 1.6 mph /  2.6 km/h 4.8 mph /  7.7 km/h 88 % 0.0 in /  0 mm
01:27 4.7 °F /  -15.2 °C 2.9 °F /  -16.2 °C 1018.8 in /  34496.6 hPa Calm   6.4 mph /  10.3 km/h 88 % 0.0 in /  0 mm
01:32 4.5 °F /  -15.3 °C 2.8 °F /  -16.2 °C 1018.5 in /  34486.4 hPa Calm   6.4 mph /  10.3 km/h 89 % 0.0 in /  0 mm
01:37 4.5 °F /  -15.3 °C 2.8 °F /  -16.2 °C 1018.5 in /  34486.4 hPa Calm   6.4 mph /  10.3 km/h 89 % 0.0 in /  0 mm
01:42 4.2 °F /  -15.4 °C 2.7 °F /  -16.3 °C 1018.5 in /  34486.4 hPa NW 3.2 mph /  5.1 km/h 4.8 mph /  7.7 km/h 90 % 0.0 in /  0 mm
01:47 4.4 °F /  -15.3 °C 2.9 °F /  -16.2 °C 1018.8 in /  34496.6 hPa NW 1.6 mph /  2.6 km/h 6.4 mph /  10.3 km/h 90 % 0.0 in /  0 mm
01:52 4.6 °F /  -15.2 °C 2.9 °F /  -16.2 °C 1018.8 in /  34496.6 hPa NNW 4.8 mph /  7.7 km/h 6.4 mph /  10.3 km/h 89 % 0.0 in /  0 mm
01:57 4.6 °F /  -15.2 °C 2.8 °F /  -16.2 °C 1018.8 in /  34496.6 hPa NNW 1.6 mph /  2.6 km/h 6.4 mph /  10.3 km/h 88 % 0.0 in /  0 mm
02:02 4.5 °F /  -15.3 °C 2.7 °F /  -16.3 °C 1018.8 in /  34496.6 hPa Calm   4.8 mph /  7.7 km/h 88 % 0.0 in /  0 mm
02:07 4.4 °F /  -15.3 °C 2.6 °F /  -16.3 °C 1018.8 in /  34496.6 hPa WNW 3.2 mph /  5.1 km/h 4.8 mph /  7.7 km/h 88 % 0.0 in /  0 mm
02:12 4.5 °F /  -15.3 °C 2.7 °F /  -16.3 °C 1018.8 in /  34496.6 hPa WNW 1.6 mph /  2.6 km/h 4.8 mph /  7.7 km/h 88 % 0.0 in /  0 mm
02:17 4.7 °F /  -15.2 °C 2.7 °F /  -16.3 °C 1018.8 in /  34496.6 hPa WNW 1.6 mph /  2.6 km/h 4.8 mph /  7.7 km/h 87 % 0.0 in /  0 mm
02:22 4.8 °F /  -15.1 °C 2.8 °F /  -16.2 °C 1018.8 in /  34496.6 hPa NNW 3.2 mph /  5.1 km/h 4.8 mph /  7.7 km/h 87 % 0.0 in /  0 mm
02:27 4.9 °F /  -15.1 °C 2.8 °F /  -16.2 °C 1018.8 in /  34496.6 hPa NW 1.6 mph /  2.6 km/h 4.8 mph /  7.7 km/h 86 % 0.0 in /  0 mm
02:32 4.9 °F /  -15.1 °C 2.8 °F /  -16.2 °C 1018.8 in /  34496.6 hPa NW 1.6 mph /  2.6 km/h 4.8 mph /  7.7 km/h 86 % 0.0 in /  0 mm
02:37 5.0 °F /  -15 °C 2.9 °F /  -16.2 °C 1018.8 in /  34496.6 hPa Calm   3.2 mph /  5.1 km/h 86 % 0.0 in /  0 mm
02:42 5.0 °F /  -15 °C 2.9 °F /  -16.2 °C 1019.2 in /  34510.1 hPa NNW 1.6 mph /  2.6 km/h 3.2 mph /  5.1 km/h 86 % 0.0 in /  0 mm
02:47 5.0 °F /  -15 °C 2.9 °F /  -16.2 °C 1019.2 in /  34510.1 hPa NW 1.6 mph /  2.6 km/h 3.2 mph /  5.1 km/h 86 % 0.0 in /  0 mm
02:52 5.0 °F /  -15 °C 2.9 °F /  -16.2 °C 1019.2 in /  34510.1 hPa NW 1.6 mph /  2.6 km/h 3.2 mph /  5.1 km/h 86 % 0.0 in /  0 mm
02:57 4.9 °F /  -15.1 °C 2.9 °F /  -16.2 °C 1019.2 in /  34510.1 hPa NW 1.6 mph /  2.6 km/h 4.8 mph /  7.7 km/h 87 % 0.0 in /  0 mm
03:02 4.9 °F /  -15.1 °C 2.9 °F /  -16.2 °C 1019.2 in /  34510.1 hPa NW 3.2 mph /  5.1 km/h 4.8 mph /  7.7 km/h 87 % 0.0 in /  0 mm
03:07 4.9 °F /  -15.1 °C 2.9 °F /  -16.2 °C 1019.2 in /  34510.1 hPa NW 4.8 mph /  7.7 km/h 4.8 mph /  7.7 km/h 87 % 0.0 in /  0 mm
03:12 5.0 °F /  -15 °C 3.0 °F /  -16.1 °C 1019.2 in /  34510.1 hPa WNW 1.6 mph /  2.6 km/h 4.8 mph /  7.7 km/h 87 % 0.0 in /  0 mm
03:17 5.1 °F /  -14.9 °C 3.1 °F /  -16.1 °C 1019.2 in /  34510.1 hPa Calm   4.8 mph /  7.7 km/h 87 % 0.0 in /  0 mm
03:22 5.1 °F /  -14.9 °C 3.1 °F /  -16.1 °C 1019.2 in /  34510.1 hPa Calm   4.8 mph /  7.7 km/h 87 % 0.0 in /  0 mm
03:27 5.1 °F /  -14.9 °C 3.1 °F /  -16.1 °C 1019.2 in /  34510.1 hPa Calm   4.8 mph /  7.7 km/h 87 % 0.0 in /  0 mm
03:32 5.1 °F /  -14.9 °C 3.1 °F /  -16.1 °C 1019.2 in /  34510.1 hPa NW 1.6 mph /  2.6 km/h 3.2 mph /  5.1 km/h 87 % 0.0 in /  0 mm
03:37 5.0 °F /  -15 °C 3.0 °F /  -16.1 °C 1019.2 in /  34510.1 hPa Calm   4.8 mph /  7.7 km/h 87 % 0.0 in /  0 mm
03:42 4.9 °F /  -15.1 °C 3.1 °F /  -16.1 °C 1019.2 in /  34510.1 hPa NNW 3.2 mph /  5.1 km/h 4.8 mph /  7.7 km/h 88 % 0.0 in /  0 mm
03:52 4.9 °F /  -15.1 °C 3.1 °F /  -16.1 °C 1019.2 in /  34510.1 hPa Calm   3.2 mph /  5.1 km/h 88 % 0.0 in /  0 mm
03:57 4.8 °F /  -15.1 °C 3.0 °F /  -16.1 °C 1019.2 in /  34510.1 hPa NNW 3.2 mph /  5.1 km/h 3.2 mph /  5.1 km/h 88 % 0.0 in /  0 mm
04:02 4.8 °F /  -15.1 °C 3.0 °F /  -16.1 °C 1019.2 in /  34510.1 hPa NNW 1.6 mph /  2.6 km/h 3.2 mph /  5.1 km/h 88 % 0.0 in /  0 mm
04:07 4.7 °F /  -15.2 °C 2.9 °F /  -16.2 °C 1019.2 in /  34510.1 hPa Calm   3.2 mph /  5.1 km/h 88 % 0.0 in /  0 mm
04:12 4.7 °F /  -15.2 °C 3.0 °F /  -16.1 °C 1019.2 in /  34510.1 hPa NNW 3.2 mph /  5.1 km/h 3.2 mph /  5.1 km/h 89 % 0.0 in /  0 mm
04:17 4.6 °F /  -15.2 °C 2.9 °F /  -16.2 °C 1019.2 in /  34510.1 hPa NW 1.6 mph /  2.6 km/h 4.8 mph /  7.7 km/h 89 % 0.0 in /  0 mm
04:22 4.6 °F /  -15.2 °C 2.9 °F /  -16.2 °C 1019.2 in /  34510.1 hPa NW 1.6 mph /  2.6 km/h 4.8 mph /  7.7 km/h 89 % 0.0 in /  0 mm
04:27 4.6 °F /  -15.2 °C 2.9 °F /  -16.2 °C 1019.2 in /  34510.1 hPa NW 1.6 mph /  2.6 km/h 6.4 mph /  10.3 km/h 89 % 0.0 in /  0 mm
04:32 4.6 °F /  -15.2 °C 2.9 °F /  -16.2 °C 1019.5 in /  34520.3 hPa NNW 1.6 mph /  2.6 km/h 8.0 mph /  12.9 km/h 89 % 0.0 in /  0 mm
04:37 4.4 °F /  -15.3 °C 2.7 °F /  -16.3 °C 1019.5 in /  34520.3 hPa NNW 3.2 mph /  5.1 km/h 8.0 mph /  12.9 km/h 89 % 0.0 in /  0 mm
04:42 4.2 °F /  -15.4 °C 2.5 °F /  -16.4 °C 1019.5 in /  34520.3 hPa NNW 1.6 mph /  2.6 km/h 8.0 mph /  12.9 km/h 89 % 0.0 in /  0 mm
04:47 4.1 °F /  -15.5 °C 2.6 °F /  -16.3 °C 1019.5 in /  34520.3 hPa NNW 3.2 mph /  5.1 km/h 4.8 mph /  7.7 km/h 90 % 0.0 in /  0 mm
04:52 4.1 °F /  -15.5 °C 2.6 °F /  -16.3 °C 1019.5 in /  34520.3 hPa NW 1.6 mph /  2.6 km/h 6.4 mph /  10.3 km/h 90 % 0.0 in /  0 mm
04:57 3.9 °F /  -15.6 °C 2.6 °F /  -16.3 °C 1019.5 in /  34520.3 hPa NW 3.2 mph /  5.1 km/h 6.4 mph /  10.3 km/h 91 % 0.0 in /  0 mm
05:02 4.0 °F /  -15.6 °C 2.7 °F /  -16.3 °C 1019.9 in /  34533.8 hPa NW 3.2 mph /  5.1 km/h 6.4 mph /  10.3 km/h 91 % 0.0 in /  0 mm
05:12 3.9 °F /  -15.6 °C 2.6 °F /  -16.3 °C 1019.9 in /  34533.8 hPa NNW 1.6 mph /  2.6 km/h 4.8 mph /  7.7 km/h 91 % 0.0 in /  0 mm
05:17 3.8 °F /  -15.7 °C 2.6 °F /  -16.3 °C 1019.9 in /  34533.8 hPa NNW 4.8 mph /  7.7 km/h 6.4 mph /  10.3 km/h 92 % 0.0 in /  0 mm
05:22 3.8 °F /  -15.7 °C 2.6 °F /  -16.3 °C 1019.9 in /  34533.8 hPa NNW 6.4 mph /  10.3 km/h 6.4 mph /  10.3 km/h 92 % 0.0 in /  0 mm
05:32 3.7 °F /  -15.7 °C 2.5 °F /  -16.4 °C 1019.9 in /  34533.8 hPa NW 1.6 mph /  2.6 km/h 8.0 mph /  12.9 km/h 92 % 0.0 in /  0 mm
05:37 3.6 °F /  -15.8 °C 2.4 °F /  -16.4 °C 1019.9 in /  34533.8 hPa NW 1.6 mph /  2.6 km/h 8.0 mph /  12.9 km/h 92 % 0.0 in /  0 mm
05:42 3.5 °F /  -15.8 °C 2.3 °F /  -16.5 °C 1019.9 in /  34533.8 hPa NNW 3.2 mph /  5.1 km/h 8.0 mph /  12.9 km/h 92 % 0.0 in /  0 mm
05:47 3.6 °F /  -15.8 °C 2.4 °F /  -16.4 °C 1019.9 in /  34533.8 hPa NNW 3.2 mph /  5.1 km/h 6.4 mph /  10.3 km/h 92 % 0.0 in /  0 mm
05:52 3.5 °F /  -15.8 °C 2.3 °F /  -16.5 °C 1019.9 in /  34533.8 hPa NNW 1.6 mph /  2.6 km/h 6.4 mph /  10.3 km/h 92 % 0.0 in /  0 mm
05:57 3.3 °F /  -15.9 °C 2.1 °F /  -16.6 °C 1019.9 in /  34533.8 hPa North 3.2 mph /  5.1 km/h 6.4 mph /  10.3 km/h 92 % 0.0 in /  0 mm
06:02 3.3 °F /  -15.9 °C 2.3 °F /  -16.5 °C 1019.9 in /  34533.8 hPa NW 3.2 mph /  5.1 km/h 8.0 mph /  12.9 km/h 93 % 0.0 in /  0 mm
06:07 3.4 °F /  -15.9 °C 2.4 °F /  -16.4 °C 1020.2 in /  34544 hPa North 4.8 mph /  7.7 km/h 8.0 mph /  12.9 km/h 93 % 0.0 in /  0 mm
06:12 3.5 °F /  -15.8 °C 2.5 °F /  -16.4 °C 1020.2 in /  34544 hPa NW 3.2 mph /  5.1 km/h 8.0 mph /  12.9 km/h 93 % 0.0 in /  0 mm
06:17 3.5 °F /  -15.8 °C 2.5 °F /  -16.4 °C 1020.2 in /  34544 hPa NNW 3.2 mph /  5.1 km/h 8.0 mph /  12.9 km/h 93 % 0.0 in /  0 mm
06:22 3.6 °F /  -15.8 °C 2.6 °F /  -16.3 °C 1020.2 in /  34544 hPa NNW 3.2 mph /  5.1 km/h 8.0 mph /  12.9 km/h 93 % 0.0 in /  0 mm
06:27 3.6 °F /  -15.8 °C 2.6 °F /  -16.3 °C 1020.2 in /  34544 hPa NNW 3.2 mph /  5.1 km/h 8.0 mph /  12.9 km/h 93 % 0.0 in /  0 mm
06:32 3.6 °F /  -15.8 °C 2.6 °F /  -16.3 °C 1020.2 in /  34544 hPa NW 3.2 mph /  5.1 km/h 8.0 mph /  12.9 km/h 93 % 0.0 in /  0 mm
06:37 3.7 °F /  -15.7 °C 2.7 °F /  -16.3 °C 1020.2 in /  34544 hPa North 3.2 mph /  5.1 km/h 6.4 mph /  10.3 km/h 93 % 0.0 in /  0 mm
06:42 3.7 °F /  -15.7 °C 2.7 °F /  -16.3 °C 1020.2 in /  34544 hPa North 1.6 mph /  2.6 km/h 8.0 mph /  12.9 km/h 93 % 0.0 in /  0 mm
06:52 3.4 °F /  -15.9 °C 2.4 °F /  -16.4 °C 1020.5 in /  34554.1 hPa NNW 3.2 mph /  5.1 km/h 8.0 mph /  12.9 km/h 93 % 0.0 in /  0 mm
06:57 3.4 °F /  -15.9 °C 2.4 °F /  -16.4 °C 1020.5 in /  34554.1 hPa NW 1.6 mph /  2.6 km/h 4.8 mph /  7.7 km/h 93 % 0.0 in /  0 mm
07:02 3.4 °F /  -15.9 °C 2.4 °F /  -16.4 °C 1020.9 in /  34567.7 hPa NW 1.6 mph /  2.6 km/h 3.2 mph /  5.1 km/h 93 % 0.0 in /  0 mm
07:12 3.1 °F /  -16.1 °C 2.1 °F /  -16.6 °C 1020.9 in /  34567.7 hPa NW 1.6 mph /  2.6 km/h 6.4 mph /  10.3 km/h 93 % 0.0 in /  0 mm
07:17 3.0 °F /  -16.1 °C 2.1 °F /  -16.6 °C 1021.2 in /  34577.8 hPa NW 1.6 mph /  2.6 km/h 8.0 mph /  12.9 km/h 94 % 0.0 in /  0 mm
07:22 3.1 °F /  -16.1 °C 2.2 °F /  -16.6 °C 1021.2 in /  34577.8 hPa NW 3.2 mph /  5.1 km/h 8.0 mph /  12.9 km/h 94 % 0.0 in /  0 mm
07:32 3.1 °F /  -16.1 °C 2.2 °F /  -16.6 °C 1021.6 in /  34591.4 hPa NW 3.2 mph /  5.1 km/h 11.3 mph /  18.2 km/h 94 % 0.0 in /  0 mm
07:37 3.1 °F /  -16.1 °C 2.2 °F /  -16.6 °C 1021.6 in /  34591.4 hPa NW 3.2 mph /  5.1 km/h 11.3 mph /  18.2 km/h 94 % 0.0 in /  0 mm
07:42 3.1 °F /  -16.1 °C 2.2 °F /  -16.6 °C 1021.6 in /  34591.4 hPa NW 3.2 mph /  5.1 km/h 11.3 mph /  18.2 km/h 94 % 0.0 in /  0 mm
07:47 3.1 °F /  -16.1 °C 2.2 °F /  -16.6 °C 1021.6 in /  34591.4 hPa NNW 3.2 mph /  5.1 km/h 9.7 mph /  15.6 km/h 94 % 0.0 in /  0 mm
07:52 3.1 °F /  -16.1 °C 2.4 °F /  -16.4 °C 1021.6 in /  34591.4 hPa North 3.2 mph /  5.1 km/h 9.7 mph /  15.6 km/h 95 % 0.0 in /  0 mm
07:57 3.2 °F /  -16 °C 2.5 °F /  -16.4 °C 1021.6 in /  34591.4 hPa WNW 3.2 mph /  5.1 km/h 9.7 mph /  15.6 km/h 95 % 0.0 in /  0 mm
08:02 3.3 °F /  -15.9 °C 2.6 °F /  -16.3 °C 1021.6 in /  34591.4 hPa NNW 1.6 mph /  2.6 km/h 9.7 mph /  15.6 km/h 95 % 0.0 in /  0 mm
08:12 3.4 °F /  -15.9 °C 2.5 °F /  -16.4 °C 1021.9 in /  34601.5 hPa NNW 1.6 mph /  2.6 km/h 9.7 mph /  15.6 km/h 94 % 0.0 in /  0 mm
08:17 3.4 °F /  -15.9 °C 2.5 °F /  -16.4 °C 1021.9 in /  34601.5 hPa NW 1.6 mph /  2.6 km/h 11.3 mph /  18.2 km/h 94 % 0.0 in /  0 mm
08:22 3.4 °F /  -15.9 °C 2.7 °F /  -16.3 °C 1021.9 in /  34601.5 hPa Calm   11.3 mph /  18.2 km/h 95 % 0.0 in /  0 mm
08:27 3.4 °F /  -15.9 °C 2.7 °F /  -16.3 °C 1021.9 in /  34601.5 hPa NW 3.2 mph /  5.1 km/h 11.3 mph /  18.2 km/h 95 % 0.0 in /  0 mm
08:32 3.4 °F /  -15.9 °C 2.7 °F /  -16.3 °C 1021.9 in /  34601.5 hPa NNW 6.4 mph /  10.3 km/h 9.7 mph /  15.6 km/h 95 % 0.0 in /  0 mm
08:37 3.5 °F /  -15.8 °C 2.8 °F /  -16.2 °C 1021.9 in /  34601.5 hPa NW 3.2 mph /  5.1 km/h 9.7 mph /  15.6 km/h 95 % 0.0 in /  0 mm
08:42 3.6 °F /  -15.8 °C 2.9 °F /  -16.2 °C 1022.2 in /  34611.7 hPa NW 1.6 mph /  2.6 km/h 9.7 mph /  15.6 km/h 95 % 0.0 in /  0 mm
08:47 3.6 °F /  -15.8 °C 2.9 °F /  -16.2 °C 1022.2 in /  34611.7 hPa NNW 3.2 mph /  5.1 km/h 9.7 mph /  15.6 km/h 95 % 0.0 in /  0 mm
08:52 3.6 °F /  -15.8 °C 2.9 °F /  -16.2 °C 1022.2 in /  34611.7 hPa NW 4.8 mph /  7.7 km/h 9.7 mph /  15.6 km/h 95 % 0.0 in /  0 mm
08:57 3.6 °F /  -15.8 °C 2.9 °F /  -16.2 °C 1022.2 in /  34611.7 hPa NW 4.8 mph /  7.7 km/h 8.0 mph /  12.9 km/h 95 % 0.0 in /  0 mm
09:02 3.7 °F /  -15.7 °C 3.1 °F /  -16.1 °C 1022.2 in /  34611.7 hPa NW 3.2 mph /  5.1 km/h 8.0 mph /  12.9 km/h 96 % 0.3 in /  7.62 mm
09:12 3.8 °F /  -15.7 °C 3.2 °F /  -16 °C 1022.2 in /  34611.7 hPa NNW 6.4 mph /  10.3 km/h 8.0 mph /  12.9 km/h 96 % 0.3 in /  7.62 mm
09:17 3.8 °F /  -15.7 °C 3.2 °F /  -16 °C 1022.2 in /  34611.7 hPa Calm   8.0 mph /  12.9 km/h 96 % 0.3 in /  7.62 mm
09:22 3.8 °F /  -15.7 °C 3.2 °F /  -16 °C 1022.2 in /  34611.7 hPa NW 6.4 mph /  10.3 km/h 8.0 mph /  12.9 km/h 96 % 0.3 in /  7.62 mm
09:27 3.9 °F /  -15.6 °C 3.3 °F /  -15.9 °C 1022.6 in /  34625.2 hPa NNW 4.8 mph /  7.7 km/h 8.0 mph /  12.9 km/h 96 % 0.3 in /  7.62 mm
09:32 4.0 °F /  -15.6 °C 3.4 °F /  -15.9 °C 1022.6 in /  34625.2 hPa NW 6.4 mph /  10.3 km/h 8.0 mph /  12.9 km/h 96 % 0.3 in /  7.62 mm
09:37 4.0 °F /  -15.6 °C 3.4 °F /  -15.9 °C 1022.6 in /  34625.2 hPa North 1.6 mph /  2.6 km/h 8.0 mph /  12.9 km/h 96 % 0.3 in /  7.62 mm
09:42 4.0 °F /  -15.6 °C 3.4 °F /  -15.9 °C 1022.6 in /  34625.2 hPa NW 1.6 mph /  2.6 km/h 8.0 mph /  12.9 km/h 96 % 0.3 in /  7.62 mm
09:47 4.1 °F /  -15.5 °C 3.5 °F /  -15.8 °C 1022.6 in /  34625.2 hPa NW 1.6 mph /  2.6 km/h 8.0 mph /  12.9 km/h 96 % 0.5 in /  12.7 mm
09:52 4.1 °F /  -15.5 °C 3.5 °F /  -15.8 °C 1022.6 in /  34625.2 hPa WNW 4.8 mph /  7.7 km/h 6.4 mph /  10.3 km/h 96 % 0.5 in /  12.7 mm
10:02 4.1 °F /  -15.5 °C 3.5 °F /  -15.8 °C 1022.6 in /  34625.2 hPa NW 4.8 mph /  7.7 km/h 9.7 mph /  15.6 km/h 96 % 0.3 in /  7.62 mm
10:07 4.2 °F /  -15.4 °C 3.6 °F /  -15.8 °C 1022.9 in /  34635.4 hPa WNW 3.2 mph /  5.1 km/h 9.7 mph /  15.6 km/h 96 % 0.3 in /  7.62 mm
10:12 4.3 °F /  -15.4 °C 3.7 °F /  -15.7 °C 1022.9 in /  34635.4 hPa NW 3.2 mph /  5.1 km/h 8.0 mph /  12.9 km/h 96 % 0.3 in /  7.62 mm
10:17 4.4 °F /  -15.3 °C 3.8 °F /  -15.7 °C 1022.9 in /  34635.4 hPa NW 3.2 mph /  5.1 km/h 8.0 mph /  12.9 km/h 96 % 0.3 in /  7.62 mm
10:22 4.4 °F /  -15.3 °C 3.8 °F /  -15.7 °C 1022.9 in /  34635.4 hPa NW 1.6 mph /  2.6 km/h 8.0 mph /  12.9 km/h 96 % 0.3 in /  7.62 mm
10:27 4.6 °F /  -15.2 °C 4.0 °F /  -15.6 °C 1022.9 in /  34635.4 hPa NW 1.6 mph /  2.6 km/h 8.0 mph /  12.9 km/h 96 % 0.3 in /  7.62 mm
10:32 4.7 °F /  -15.2 °C 4.1 °F /  -15.5 °C 1022.9 in /  34635.4 hPa West 6.4 mph /  10.3 km/h 6.4 mph /  10.3 km/h 96 % 0.3 in /  7.62 mm
10:37 4.7 °F /  -15.2 °C 4.0 °F /  -15.6 °C 1022.9 in /  34635.4 hPa NW 1.6 mph /  2.6 km/h 8.0 mph /  12.9 km/h 95 % 0.3 in /  7.62 mm
10:42 4.7 °F /  -15.2 °C 4.0 °F /  -15.6 °C 1022.9 in /  34635.4 hPa NNW 4.8 mph /  7.7 km/h 11.3 mph /  18.2 km/h 95 % 0.3 in /  7.62 mm
10:47 4.8 °F /  -15.1 °C 4.1 °F /  -15.5 °C 1022.9 in /  34635.4 hPa NNW 6.4 mph /  10.3 km/h 12.9 mph /  20.8 km/h 95 % 0.0 in /  0 mm
10:52 4.7 °F /  -15.2 °C 3.8 °F /  -15.7 °C 1022.9 in /  34635.4 hPa West 6.4 mph /  10.3 km/h 12.9 mph /  20.8 km/h 94 % 0.0 in /  0 mm
10:57 4.8 °F /  -15.1 °C 4.1 °F /  -15.5 °C 1022.9 in /  34635.4 hPa West 4.8 mph /  7.7 km/h 12.9 mph /  20.8 km/h 95 % 0.0 in /  0 mm
11:02 4.7 °F /  -15.2 °C 4.0 °F /  -15.6 °C 1022.9 in /  34635.4 hPa WNW 11.3 mph /  18.2 km/h 16.1 mph /  25.9 km/h 95 % 0.0 in /  0 mm
11:07 4.7 °F /  -15.2 °C 4.0 °F /  -15.6 °C 1023.2 in /  34645.6 hPa NW 4.8 mph /  7.7 km/h 16.1 mph /  25.9 km/h 95 % 0.0 in /  0 mm
11:12 4.7 °F /  -15.2 °C 4.0 °F /  -15.6 °C 1023.2 in /  34645.6 hPa NW 9.7 mph /  15.6 km/h 16.1 mph /  25.9 km/h 95 % 0.0 in /  0 mm
11:17 4.8 °F /  -15.1 °C 4.1 °F /  -15.5 °C 1023.2 in /  34645.6 hPa NNW 6.4 mph /  10.3 km/h 12.9 mph /  20.8 km/h 95 % 0.0 in /  0 mm
11:22 4.8 °F /  -15.1 °C 4.1 °F /  -15.5 °C 1023.2 in /  34645.6 hPa WNW 6.4 mph /  10.3 km/h 12.9 mph /  20.8 km/h 95 % 0.0 in /  0 mm
11:27 4.9 °F /  -15.1 °C 4.2 °F /  -15.4 °C 1023.2 in /  34645.6 hPa NNW 4.8 mph /  7.7 km/h 12.9 mph /  20.8 km/h 95 % 0.0 in /  0 mm
11:32 4.9 °F /  -15.1 °C 4.2 °F /  -15.4 °C 1023.2 in /  34645.6 hPa NNW 4.8 mph /  7.7 km/h 12.9 mph /  20.8 km/h 95 % 0.0 in /  0 mm
11:42 5.1 °F /  -14.9 °C 4.4 °F /  -15.3 °C 1023.6 in /  34659.1 hPa NNW 4.8 mph /  7.7 km/h 16.1 mph /  25.9 km/h 95 % 0.0 in /  0 mm
11:52 5.3 °F /  -14.8 °C 4.4 °F /  -15.3 °C 1023.6 in /  34659.1 hPa NW 3.2 mph /  5.1 km/h 12.9 mph /  20.8 km/h 94 % 0.0 in /  0 mm
11:57 5.3 °F /  -14.8 °C 4.4 °F /  -15.3 °C 1023.6 in /  34659.1 hPa NNW 4.8 mph /  7.7 km/h 12.9 mph /  20.8 km/h 94 % 0.0 in /  0 mm
12:02 5.4 °F /  -14.8 °C 4.5 °F /  -15.3 °C 1023.6 in /  34659.1 hPa NNW 4.8 mph /  7.7 km/h 12.9 mph /  20.8 km/h 94 % 0.0 in /  0 mm
12:07 5.4 °F /  -14.8 °C 4.5 °F /  -15.3 °C 1023.6 in /  34659.1 hPa NW 6.4 mph /  10.3 km/h 14.5 mph /  23.3 km/h 94 % 0.0 in /  0 mm
12:12 5.4 °F /  -14.8 °C 4.4 °F /  -15.3 °C 1023.6 in /  34659.1 hPa WNW 6.4 mph /  10.3 km/h 14.5 mph /  23.3 km/h 93 % 0.0 in /  0 mm
12:17 5.4 °F /  -14.8 °C 4.4 °F /  -15.3 °C 1023.9 in /  34669.3 hPa NNE 4.8 mph /  7.7 km/h 16.1 mph /  25.9 km/h 93 % 0.0 in /  0 mm
12:22 5.4 °F /  -14.8 °C 4.4 °F /  -15.3 °C 1023.9 in /  34669.3 hPa NNW 4.8 mph /  7.7 km/h 16.1 mph /  25.9 km/h 93 % 0.0 in /  0 mm
12:27 5.4 °F /  -14.8 °C 4.4 °F /  -15.3 °C 1023.9 in /  34669.3 hPa NNW 8.0 mph /  12.9 km/h 16.1 mph /  25.9 km/h 93 % 0.0 in /  0 mm
12:32 5.4 °F /  -14.8 °C 4.4 °F /  -15.3 °C 1023.9 in /  34669.3 hPa WNW 4.8 mph /  7.7 km/h 14.5 mph /  23.3 km/h 93 % 0.0 in /  0 mm
12:37 5.4 °F /  -14.8 °C 4.4 °F /  -15.3 °C 1023.9 in /  34669.3 hPa NW 6.4 mph /  10.3 km/h 14.5 mph /  23.3 km/h 93 % 0.0 in /  0 mm
12:42 5.3 °F /  -14.8 °C 4.3 °F /  -15.4 °C 1023.9 in /  34669.3 hPa NNW 3.2 mph /  5.1 km/h 14.5 mph /  23.3 km/h 93 % 0.0 in /  0 mm
12:52 5.2 °F /  -14.9 °C 4.3 °F /  -15.4 °C 1023.9 in /  34669.3 hPa NW 8.0 mph /  12.9 km/h 19.3 mph /  31.1 km/h 94 % 0.0 in /  0 mm
12:57 5.2 °F /  -14.9 °C 4.3 °F /  -15.4 °C 1023.9 in /  34669.3 hPa NW 1.6 mph /  2.6 km/h 19.3 mph /  31.1 km/h 94 % 0.0 in /  0 mm
13:02 5.1 °F /  -14.9 °C 4.2 °F /  -15.4 °C 1023.9 in /  34669.3 hPa NNW 4.8 mph /  7.7 km/h 19.3 mph /  31.1 km/h 94 % 0.0 in /  0 mm
13:07 5.2 °F /  -14.9 °C 4.3 °F /  -15.4 °C 1023.9 in /  34669.3 hPa NNW 1.6 mph /  2.6 km/h 14.5 mph /  23.3 km/h 94 % 0.0 in /  0 mm
13:12 5.2 °F /  -14.9 °C 4.3 °F /  -15.4 °C 1023.9 in /  34669.3 hPa NNW 4.8 mph /  7.7 km/h 12.9 mph /  20.8 km/h 94 % 0.0 in /  0 mm
13:17 5.3 °F /  -14.8 °C 4.4 °F /  -15.3 °C 1023.9 in /  34669.3 hPa North 4.8 mph /  7.7 km/h 11.3 mph /  18.2 km/h 94 % 0.0 in /  0 mm
13:22 5.3 °F /  -14.8 °C 4.4 °F /  -15.3 °C 1023.9 in /  34669.3 hPa North 9.7 mph /  15.6 km/h 9.7 mph /  15.6 km/h 94 % 0.0 in /  0 mm
13:27 5.4 °F /  -14.8 °C 4.4 °F /  -15.3 °C 1023.9 in /  34669.3 hPa West 1.6 mph /  2.6 km/h 9.7 mph /  15.6 km/h 93 % 0.0 in /  0 mm
13:32 5.6 °F /  -14.7 °C 4.4 °F /  -15.3 °C 1023.9 in /  34669.3 hPa West 3.2 mph /  5.1 km/h 9.7 mph /  15.6 km/h 92 % 0.0 in /  0 mm
13:37 5.8 °F /  -14.6 °C 4.6 °F /  -15.2 °C 1023.9 in /  34669.3 hPa NW 1.6 mph /  2.6 km/h 9.7 mph /  15.6 km/h 92 % 0.0 in /  0 mm
13:42 6.2 °F /  -14.3 °C 4.7 °F /  -15.2 °C 1023.9 in /  34669.3 hPa WNW 8.0 mph /  12.9 km/h 9.7 mph /  15.6 km/h 90 % 0.0 in /  0 mm
13:47 6.4 °F /  -14.2 °C 4.7 °F /  -15.2 °C 1023.9 in /  34669.3 hPa NW 3.2 mph /  5.1 km/h 14.5 mph /  23.3 km/h 89 % 0.0 in /  0 mm
13:52 6.2 °F /  -14.3 °C 4.5 °F /  -15.3 °C 1023.9 in /  34669.3 hPa NW 6.4 mph /  10.3 km/h 17.7 mph /  28.5 km/h 89 % 0.0 in /  0 mm
13:57 6.2 °F /  -14.3 °C 4.5 °F /  -15.3 °C 1023.9 in /  34669.3 hPa NW 4.8 mph /  7.7 km/h 17.7 mph /  28.5 km/h 89 % 0.0 in /  0 mm
14:02 6.1 °F /  -14.4 °C 4.4 °F /  -15.3 °C 1023.9 in /  34669.3 hPa NNW 6.4 mph /  10.3 km/h 17.7 mph /  28.5 km/h 89 % 0.0 in /  0 mm
14:07 5.9 °F /  -14.5 °C 4.4 °F /  -15.3 °C 1023.9 in /  34669.3 hPa North 3.2 mph /  5.1 km/h 14.5 mph /  23.3 km/h 90 % 0.0 in /  0 mm
14:12 5.9 °F /  -14.5 °C 4.4 °F /  -15.3 °C 1023.6 in /  34659.1 hPa NW 6.4 mph /  10.3 km/h 14.5 mph /  23.3 km/h 90 % 0.0 in /  0 mm
14:17 6.0 °F /  -14.4 °C 4.5 °F /  -15.3 °C 1023.6 in /  34659.1 hPa NW 3.2 mph /  5.1 km/h 11.3 mph /  18.2 km/h 90 % 0.0 in /  0 mm
14:22 6.2 °F /  -14.3 °C 4.5 °F /  -15.3 °C 1023.6 in /  34659.1 hPa NNW 6.4 mph /  10.3 km/h 12.9 mph /  20.8 km/h 89 % 0.0 in /  0 mm
14:27 6.2 °F /  -14.3 °C 4.4 °F /  -15.3 °C 1023.6 in /  34659.1 hPa WNW 6.4 mph /  10.3 km/h 12.9 mph /  20.8 km/h 88 % 0.0 in /  0 mm
14:32 6.3 °F /  -14.3 °C 4.3 °F /  -15.4 °C 1023.6 in /  34659.1 hPa NNW 8.0 mph /  12.9 km/h 12.9 mph /  20.8 km/h 87 % 0.0 in /  0 mm
14:37 6.3 °F /  -14.3 °C 4.5 °F /  -15.3 °C 1023.6 in /  34659.1 hPa North 4.8 mph /  7.7 km/h 14.5 mph /  23.3 km/h 88 % 0.0 in /  0 mm
14:42 6.4 °F /  -14.2 °C 4.6 °F /  -15.2 °C 1023.6 in /  34659.1 hPa NNW 3.2 mph /  5.1 km/h 14.5 mph /  23.3 km/h 88 % 0.0 in /  0 mm
14:47 6.4 °F /  -14.2 °C 4.4 °F /  -15.3 °C 1023.6 in /  34659.1 hPa NNW 3.2 mph /  5.1 km/h 12.9 mph /  20.8 km/h 87 % 0.0 in /  0 mm
14:52 6.4 °F /  -14.2 °C 4.1 °F /  -15.5 °C 1023.6 in /  34659.1 hPa NW 6.4 mph /  10.3 km/h 12.9 mph /  20.8 km/h 85 % 0.0 in /  0 mm
14:57 6.4 °F /  -14.2 °C 4.2 °F /  -15.4 °C 1023.6 in /  34659.1 hPa NW 6.4 mph /  10.3 km/h 12.9 mph /  20.8 km/h 86 % 0.0 in /  0 mm
15:02 6.4 °F /  -14.2 °C 4.1 °F /  -15.5 °C 1023.6 in /  34659.1 hPa NNW 3.2 mph /  5.1 km/h 11.3 mph /  18.2 km/h 85 % 0.0 in /  0 mm
15:07 6.4 °F /  -14.2 °C 4.1 °F /  -15.5 °C 1023.6 in /  34659.1 hPa NNW 1.6 mph /  2.6 km/h 11.3 mph /  18.2 km/h 85 % 0.0 in /  0 mm
15:12 6.3 °F /  -14.3 °C 4.0 °F /  -15.6 °C 1023.9 in /  34669.3 hPa WNW 1.6 mph /  2.6 km/h 11.3 mph /  18.2 km/h 85 % 0.0 in /  0 mm
15:17 6.3 °F /  -14.3 °C 3.8 °F /  -15.7 °C 1023.9 in /  34669.3 hPa WNW 4.8 mph /  7.7 km/h 11.3 mph /  18.2 km/h 84 % 0.0 in /  0 mm
15:22 6.3 °F /  -14.3 °C 3.6 °F /  -15.8 °C 1023.6 in /  34659.1 hPa North 6.4 mph /  10.3 km/h 16.1 mph /  25.9 km/h 83 % 0.0 in /  0 mm
15:27 6.3 °F /  -14.3 °C 3.8 °F /  -15.7 °C 1023.9 in /  34669.3 hPa North 6.4 mph /  10.3 km/h 16.1 mph /  25.9 km/h 84 % 0.0 in /  0 mm
15:32 6.3 °F /  -14.3 °C 3.8 °F /  -15.7 °C 1023.9 in /  34669.3 hPa NW 4.8 mph /  7.7 km/h 14.5 mph /  23.3 km/h 84 % 0.0 in /  0 mm
15:37 6.3 °F /  -14.3 °C 4.0 °F /  -15.6 °C 1023.9 in /  34669.3 hPa NNW 8.0 mph /  12.9 km/h 14.5 mph /  23.3 km/h 85 % 0.0 in /  0 mm
15:42 6.3 °F /  -14.3 °C 4.0 °F /  -15.6 °C 1023.9 in /  34669.3 hPa North 3.2 mph /  5.1 km/h 16.1 mph /  25.9 km/h 85 % 0.0 in /  0 mm
15:52 6.3 °F /  -14.3 °C 4.0 °F /  -15.6 °C 1023.9 in /  34669.3 hPa NW 4.8 mph /  7.7 km/h 16.1 mph /  25.9 km/h 85 % 0.0 in /  0 mm
15:57 6.4 °F /  -14.2 °C 4.1 °F /  -15.5 °C 1023.9 in /  34669.3 hPa NNE 6.4 mph /  10.3 km/h 11.3 mph /  18.2 km/h 85 % 0.0 in /  0 mm
16:02 6.3 °F /  -14.3 °C 3.8 °F /  -15.7 °C 1024.3 in /  34682.8 hPa North 6.4 mph /  10.3 km/h 11.3 mph /  18.2 km/h 84 % 0.0 in /  0 mm
16:07 6.4 °F /  -14.2 °C 3.7 °F /  -15.7 °C 1023.9 in /  34669.3 hPa NNW 3.2 mph /  5.1 km/h 12.9 mph /  20.8 km/h 83 % 0.0 in /  0 mm
16:12 6.4 °F /  -14.2 °C 3.7 °F /  -15.7 °C 1023.9 in /  34669.3 hPa NNW 6.4 mph /  10.3 km/h 12.9 mph /  20.8 km/h 83 % 0.0 in /  0 mm
16:17 6.4 °F /  -14.2 °C 3.9 °F /  -15.6 °C 1023.9 in /  34669.3 hPa NW 4.8 mph /  7.7 km/h 12.9 mph /  20.8 km/h 84 % 0.0 in /  0 mm
16:27 6.4 °F /  -14.2 °C 3.6 °F /  -15.8 °C 1024.3 in /  34682.8 hPa North 9.7 mph /  15.6 km/h 12.9 mph /  20.8 km/h 82 % 0.0 in /  0 mm
16:32 6.4 °F /  -14.2 °C 3.6 °F /  -15.8 °C 1024.3 in /  34682.8 hPa NNW 6.4 mph /  10.3 km/h 12.9 mph /  20.8 km/h 82 % 0.0 in /  0 mm
16:37 6.4 °F /  -14.2 °C 3.4 °F /  -15.9 °C 1023.9 in /  34669.3 hPa NNE 4.8 mph /  7.7 km/h 16.1 mph /  25.9 km/h 81 % 0.0 in /  0 mm
16:42 6.4 °F /  -14.2 °C 3.4 °F /  -15.9 °C 1023.9 in /  34669.3 hPa North 8.0 mph /  12.9 km/h 16.1 mph /  25.9 km/h 81 % 0.0 in /  0 mm
16:47 6.4 °F /  -14.2 °C 3.2 °F /  -16 °C 1023.9 in /  34669.3 hPa NW 6.4 mph /  10.3 km/h 16.1 mph /  25.9 km/h 80 % 0.0 in /  0 mm
16:52 6.4 °F /  -14.2 °C 3.4 °F /  -15.9 °C 1024.3 in /  34682.8 hPa NW 4.8 mph /  7.7 km/h 12.9 mph /  20.8 km/h 81 % 0.0 in /  0 mm
16:57 6.4 °F /  -14.2 °C 3.4 °F /  -15.9 °C 1024.3 in /  34682.8 hPa NW 6.4 mph /  10.3 km/h 12.9 mph /  20.8 km/h 81 % 0.0 in /  0 mm
17:02 6.3 °F /  -14.3 °C 3.1 °F /  -16.1 °C 1024.3 in /  34682.8 hPa NNW 11.3 mph /  18.2 km/h 12.9 mph /  20.8 km/h 80 % 0.0 in /  0 mm
17:07 6.3 °F /  -14.3 °C 2.9 °F /  -16.2 °C 1024.3 in /  34682.8 hPa North 8.0 mph /  12.9 km/h 14.5 mph /  23.3 km/h 79 % 0.0 in /  0 mm
17:12 6.3 °F /  -14.3 °C 2.7 °F /  -16.3 °C 1024.3 in /  34682.8 hPa North 8.0 mph /  12.9 km/h 14.5 mph /  23.3 km/h 78 % 0.0 in /  0 mm
17:17 6.3 °F /  -14.3 °C 2.9 °F /  -16.2 °C 1024.3 in /  34682.8 hPa NW 4.8 mph /  7.7 km/h 16.1 mph /  25.9 km/h 79 % 0.0 in /  0 mm
17:22 6.3 °F /  -14.3 °C 2.7 °F /  -16.3 °C 1024.3 in /  34682.8 hPa NNE 6.4 mph /  10.3 km/h 16.1 mph /  25.9 km/h 78 % 0.0 in /  0 mm
17:27 6.2 °F /  -14.3 °C 2.8 °F /  -16.2 °C 1024.3 in /  34682.8 hPa North 3.2 mph /  5.1 km/h 14.5 mph /  23.3 km/h 79 % 0.0 in /  0 mm
17:32 6.2 °F /  -14.3 °C 2.8 °F /  -16.2 °C 1024.3 in /  34682.8 hPa NNW 4.8 mph /  7.7 km/h 14.5 mph /  23.3 km/h 79 % 0.0 in /  0 mm
17:37 6.2 °F /  -14.3 °C 2.8 °F /  -16.2 °C 1024.3 in /  34682.8 hPa NNW 4.8 mph /  7.7 km/h 14.5 mph /  23.3 km/h 79 % 0.0 in /  0 mm
17:42 6.1 °F /  -14.4 °C 2.9 °F /  -16.2 °C 1024.3 in /  34682.8 hPa North 8.0 mph /  12.9 km/h 12.9 mph /  20.8 km/h 80 % 0.0 in /  0 mm
17:47 6.1 °F /  -14.4 °C 2.9 °F /  -16.2 °C 1024.3 in /  34682.8 hPa NNW 9.7 mph /  15.6 km/h 11.3 mph /  18.2 km/h 80 % 0.0 in /  0 mm
17:52 6.1 °F /  -14.4 °C 2.9 °F /  -16.2 °C 1024.3 in /  34682.8 hPa NNW 8.0 mph /  12.9 km/h 12.9 mph /  20.8 km/h 80 % 0.0 in /  0 mm
17:57 6.0 °F /  -14.4 °C 3.0 °F /  -16.1 °C 1024.3 in /  34682.8 hPa NNW 1.6 mph /  2.6 km/h 12.9 mph /  20.8 km/h 81 % 0.0 in /  0 mm
18:02 5.9 °F /  -14.5 °C 2.9 °F /  -16.2 °C 1024.6 in /  34693 hPa NNW 1.6 mph /  2.6 km/h 12.9 mph /  20.8 km/h 81 % 0.0 in /  0 mm
18:07 5.9 °F /  -14.5 °C 2.9 °F /  -16.2 °C 1024.6 in /  34693 hPa NNW 1.6 mph /  2.6 km/h 9.7 mph /  15.6 km/h 81 % 0.0 in /  0 mm
18:12 5.9 °F /  -14.5 °C 2.9 °F /  -16.2 °C 1024.6 in /  34693 hPa NNW 1.6 mph /  2.6 km/h 9.7 mph /  15.6 km/h 81 % 0.0 in /  0 mm
18:17 5.9 °F /  -14.5 °C 2.9 °F /  -16.2 °C 1024.9 in /  34703.1 hPa WNW 1.6 mph /  2.6 km/h 9.7 mph /  15.6 km/h 81 % 0.0 in /  0 mm
18:27 5.8 °F /  -14.6 °C 3.0 °F /  -16.1 °C 1024.9 in /  34703.1 hPa Calm   6.4 mph /  10.3 km/h 82 % 0.0 in /  0 mm
18:32 5.7 °F /  -14.6 °C 3.0 °F /  -16.1 °C 1024.9 in /  34703.1 hPa NNE 1.6 mph /  2.6 km/h 4.8 mph /  7.7 km/h 83 % 0.0 in /  0 mm
18:37 5.7 °F /  -14.6 °C 3.0 °F /  -16.1 °C 1024.9 in /  34703.1 hPa Calm   4.8 mph /  7.7 km/h 83 % 0.0 in /  0 mm
18:42 5.6 °F /  -14.7 °C 2.9 °F /  -16.2 °C 1024.9 in /  34703.1 hPa Calm   4.8 mph /  7.7 km/h 83 % 0.0 in /  0 mm
18:47 5.7 °F /  -14.6 °C 3.0 °F /  -16.1 °C 1024.9 in /  34703.1 hPa Calm   4.8 mph /  7.7 km/h 83 % 0.0 in /  0 mm
18:52 5.7 °F /  -14.6 °C 2.9 °F /  -16.2 °C 1024.9 in /  34703.1 hPa NW 1.6 mph /  2.6 km/h 4.8 mph /  7.7 km/h 82 % 0.0 in /  0 mm
18:57 5.7 °F /  -14.6 °C 2.9 °F /  -16.2 °C 1024.9 in /  34703.1 hPa Calm   4.8 mph /  7.7 km/h 82 % 0.0 in /  0 mm
19:02 5.7 °F /  -14.6 °C 2.9 °F /  -16.2 °C 1024.9 in /  34703.1 hPa NNW 1.6 mph /  2.6 km/h 6.4 mph /  10.3 km/h 82 % 0.0 in /  0 mm
19:07 5.7 °F /  -14.6 °C 2.9 °F /  -16.2 °C 1024.9 in /  34703.1 hPa NNW 1.6 mph /  2.6 km/h 6.4 mph /  10.3 km/h 82 % 0.0 in /  0 mm
19:12 5.7 °F /  -14.6 °C 2.9 °F /  -16.2 °C 1024.9 in /  34703.1 hPa Calm   6.4 mph /  10.3 km/h 82 % 0.0 in /  0 mm
19:17 5.7 °F /  -14.6 °C 2.9 °F /  -16.2 °C 1024.9 in /  34703.1 hPa NW 3.2 mph /  5.1 km/h 6.4 mph /  10.3 km/h 82 % 0.0 in /  0 mm
19:22 5.7 °F /  -14.6 °C 2.9 °F /  -16.2 °C 1024.9 in /  34703.1 hPa Calm   6.4 mph /  10.3 km/h 82 % 0.0 in /  0 mm
19:27 5.7 °F /  -14.6 °C 3.0 °F /  -16.1 °C 1025.3 in /  34716.7 hPa NW 1.6 mph /  2.6 km/h 6.4 mph /  10.3 km/h 83 % 0.0 in /  0 mm
19:32 5.6 °F /  -14.7 °C 2.9 °F /  -16.2 °C 1025.3 in /  34716.7 hPa NNW 3.2 mph /  5.1 km/h 6.4 mph /  10.3 km/h 83 % 0.0 in /  0 mm
19:37 5.6 °F /  -14.7 °C 2.9 °F /  -16.2 °C 1025.3 in /  34716.7 hPa Calm   6.4 mph /  10.3 km/h 83 % 0.0 in /  0 mm
19:42 5.6 °F /  -14.7 °C 2.9 °F /  -16.2 °C 1025.3 in /  34716.7 hPa NNE 1.6 mph /  2.6 km/h 6.4 mph /  10.3 km/h 83 % 0.0 in /  0 mm
19:47 5.5 °F /  -14.7 °C 3.0 °F /  -16.1 °C 1025.3 in /  34716.7 hPa North 1.6 mph /  2.6 km/h 6.4 mph /  10.3 km/h 84 % 0.0 in /  0 mm
19:52 5.4 °F /  -14.8 °C 2.9 °F /  -16.2 °C 1025.3 in /  34716.7 hPa NNW 3.2 mph /  5.1 km/h 6.4 mph /  10.3 km/h 84 % 0.0 in /  0 mm
19:57 5.4 °F /  -14.8 °C 3.1 °F /  -16.1 °C 1025.3 in /  34716.7 hPa North 1.6 mph /  2.6 km/h 4.8 mph /  7.7 km/h 85 % 0.0 in /  0 mm
20:02 5.3 °F /  -14.8 °C 3.0 °F /  -16.1 °C 1025.3 in /  34716.7 hPa North 1.6 mph /  2.6 km/h 4.8 mph /  7.7 km/h 85 % 0.0 in /  0 mm
20:07 5.2 °F /  -14.9 °C 3.1 °F /  -16.1 °C 1025.6 in /  34726.8 hPa Calm   4.8 mph /  7.7 km/h 86 % 0.0 in /  0 mm
20:17 5.2 °F /  -14.9 °C 3.1 °F /  -16.1 °C 1025.6 in /  34726.8 hPa NW 3.2 mph /  5.1 km/h 4.8 mph /  7.7 km/h 86 % 0.0 in /  0 mm
20:22 5.2 °F /  -14.9 °C 2.9 °F /  -16.2 °C 1025.3 in /  34716.7 hPa Calm   4.8 mph /  7.7 km/h 85 % 0.0 in /  0 mm
20:32 5.2 °F /  -14.9 °C 2.9 °F /  -16.2 °C 1025.6 in /  34726.8 hPa NNW 1.6 mph /  2.6 km/h 4.8 mph /  7.7 km/h 85 % 0.0 in /  0 mm
20:37 5.1 °F /  -14.9 °C 2.8 °F /  -16.2 °C 1025.6 in /  34726.8 hPa North 1.6 mph /  2.6 km/h 3.2 mph /  5.1 km/h 85 % 0.0 in /  0 mm
20:42 5.1 °F /  -14.9 °C 2.8 °F /  -16.2 °C 1025.6 in /  34726.8 hPa NNW 1.6 mph /  2.6 km/h 3.2 mph /  5.1 km/h 85 % 0.0 in /  0 mm
20:47 5.0 °F /  -15 °C 2.9 °F /  -16.2 °C 1025.3 in /  34716.7 hPa NNW 1.6 mph /  2.6 km/h 3.2 mph /  5.1 km/h 86 % 0.0 in /  0 mm
20:52 5.0 °F /  -15 °C 2.9 °F /  -16.2 °C 1025.3 in /  34716.7 hPa NW 1.6 mph /  2.6 km/h 3.2 mph /  5.1 km/h 86 % 0.0 in /  0 mm
20:57 4.9 °F /  -15.1 °C 2.8 °F /  -16.2 °C 1025.3 in /  34716.7 hPa North 1.6 mph /  2.6 km/h 3.2 mph /  5.1 km/h 86 % 0.0 in /  0 mm
21:02 4.9 °F /  -15.1 °C 2.8 °F /  -16.2 °C 1025.3 in /  34716.7 hPa NNW 1.6 mph /  2.6 km/h 3.2 mph /  5.1 km/h 86 % 0.0 in /  0 mm
21:07 4.8 °F /  -15.1 °C 2.7 °F /  -16.3 °C 1025.3 in /  34716.7 hPa NNW 1.6 mph /  2.6 km/h 3.2 mph /  5.1 km/h 86 % 0.0 in /  0 mm
21:12 4.8 °F /  -15.1 °C 2.7 °F /  -16.3 °C 1025.6 in /  34726.8 hPa NW 1.6 mph /  2.6 km/h 3.2 mph /  5.1 km/h 86 % 0.0 in /  0 mm
21:17 4.7 °F /  -15.2 °C 2.7 °F /  -16.3 °C 1025.6 in /  34726.8 hPa Calm   3.2 mph /  5.1 km/h 87 % 0.0 in /  0 mm
21:22 4.7 °F /  -15.2 °C 2.7 °F /  -16.3 °C 1025.3 in /  34716.7 hPa NNW 1.6 mph /  2.6 km/h 3.2 mph /  5.1 km/h 87 % 0.0 in /  0 mm
21:27 4.7 °F /  -15.2 °C 2.7 °F /  -16.3 °C 1025.3 in /  34716.7 hPa NE 1.6 mph /  2.6 km/h 3.2 mph /  5.1 km/h 87 % 0.0 in /  0 mm
21:32 4.7 °F /  -15.2 °C 2.7 °F /  -16.3 °C 1025.3 in /  34716.7 hPa North 6.4 mph /  10.3 km/h 6.4 mph /  10.3 km/h 87 % 0.0 in /  0 mm
21:37 4.8 °F /  -15.1 °C 2.8 °F /  -16.2 °C 1025.3 in /  34716.7 hPa NNW 1.6 mph /  2.6 km/h 6.4 mph /  10.3 km/h 87 % 0.0 in /  0 mm
21:42 4.6 °F /  -15.2 °C 2.6 °F /  -16.3 °C 1025.3 in /  34716.7 hPa NW 1.6 mph /  2.6 km/h 6.4 mph /  10.3 km/h 87 % 0.0 in /  0 mm
21:47 4.6 °F /  -15.2 °C 2.8 °F /  -16.2 °C 1025.3 in /  34716.7 hPa NNW 3.2 mph /  5.1 km/h 6.4 mph /  10.3 km/h 88 % 0.0 in /  0 mm
21:52 4.6 °F /  -15.2 °C 2.8 °F /  -16.2 °C 1025.3 in /  34716.7 hPa North 4.8 mph /  7.7 km/h 4.8 mph /  7.7 km/h 88 % 0.0 in /  0 mm
22:02 4.5 °F /  -15.3 °C 2.7 °F /  -16.3 °C 1025.6 in /  34726.8 hPa NNW 3.2 mph /  5.1 km/h 6.4 mph /  10.3 km/h 88 % 0.0 in /  0 mm
22:07 4.5 °F /  -15.3 °C 2.7 °F /  -16.3 °C 1025.3 in /  34716.7 hPa North 3.2 mph /  5.1 km/h 6.4 mph /  10.3 km/h 88 % 0.0 in /  0 mm
22:12 4.6 °F /  -15.2 °C 2.8 °F /  -16.2 °C 1025.3 in /  34716.7 hPa NNW 3.2 mph /  5.1 km/h 6.4 mph /  10.3 km/h 88 % 0.0 in /  0 mm
22:17 4.6 °F /  -15.2 °C 2.8 °F /  -16.2 °C 1025.3 in /  34716.7 hPa North 3.2 mph /  5.1 km/h 6.4 mph /  10.3 km/h 88 % 0.0 in /  0 mm
22:22 4.4 °F /  -15.3 °C 2.6 °F /  -16.3 °C 1025.3 in /  34716.7 hPa Calm   6.4 mph /  10.3 km/h 88 % 0.0 in /  0 mm
22:32 4.4 °F /  -15.3 °C 2.6 °F /  -16.3 °C 1025.3 in /  34716.7 hPa NNW 1.6 mph /  2.6 km/h 4.8 mph /  7.7 km/h 88 % 0.0 in /  0 mm
22:37 4.4 °F /  -15.3 °C 2.6 °F /  -16.3 °C 1025.3 in /  34716.7 hPa NE 3.2 mph /  5.1 km/h 4.8 mph /  7.7 km/h 88 % 0.0 in /  0 mm
22:42 4.4 °F /  -15.3 °C 2.7 °F /  -16.3 °C 1025.3 in /  34716.7 hPa North 1.6 mph /  2.6 km/h 4.8 mph /  7.7 km/h 89 % 0.0 in /  0 mm
22:47 4.4 °F /  -15.3 °C 2.7 °F /  -16.3 °C 1025.3 in /  34716.7 hPa NNW 3.2 mph /  5.1 km/h 8.0 mph /  12.9 km/h 89 % 0.0 in /  0 mm
22:52 4.4 °F /  -15.3 °C 2.7 °F /  -16.3 °C 1025.3 in /  34716.7 hPa North 4.8 mph /  7.7 km/h 8.0 mph /  12.9 km/h 89 % 0.0 in /  0 mm
22:57 4.4 °F /  -15.3 °C 2.7 °F /  -16.3 °C 1025.3 in /  34716.7 hPa NNW 3.2 mph /  5.1 km/h 9.7 mph /  15.6 km/h 89 % 0.0 in /  0 mm
23:02 4.4 °F /  -15.3 °C 2.7 °F /  -16.3 °C 1025.3 in /  34716.7 hPa NNW 1.6 mph /  2.6 km/h 9.7 mph /  15.6 km/h 89 % 0.0 in /  0 mm
23:12 4.2 °F /  -15.4 °C 2.4 °F /  -16.4 °C 1025.6 in /  34726.8 hPa NNW 8.0 mph /  12.9 km/h 12.9 mph /  20.8 km/h 88 % 0.0 in /  0 mm
23:17 4.2 °F /  -15.4 °C 2.4 °F /  -16.4 °C 1025.6 in /  34726.8 hPa North 8.0 mph /  12.9 km/h 14.5 mph /  23.3 km/h 88 % 0.0 in /  0 mm
23:22 4.1 °F /  -15.5 °C 2.3 °F /  -16.5 °C 1025.3 in /  34716.7 hPa NW 6.4 mph /  10.3 km/h 14.5 mph /  23.3 km/h 88 % 0.0 in /  0 mm
23:27 3.9 °F /  -15.6 °C 2.1 °F /  -16.6 °C 1025.3 in /  34716.7 hPa NW 6.4 mph /  10.3 km/h 14.5 mph /  23.3 km/h 88 % 0.0 in /  0 mm
23:32 3.8 °F /  -15.7 °C 2.2 °F /  -16.6 °C 1025.3 in /  34716.7 hPa NNW 4.8 mph /  7.7 km/h 11.3 mph /  18.2 km/h 89 % 0.0 in /  0 mm
23:37 3.7 °F /  -15.7 °C 2.1 °F /  -16.6 °C 1025.3 in /  34716.7 hPa North 8.0 mph /  12.9 km/h 12.9 mph /  20.8 km/h 89 % 0.0 in /  0 mm
23:42 3.8 °F /  -15.7 °C 2.2 °F /  -16.6 °C 1025.3 in /  34716.7 hPa NE 8.0 mph /  12.9 km/h 12.9 mph /  20.8 km/h 89 % 0.0 in /  0 mm
23:47 3.8 °F /  -15.7 °C 2.2 °F /  -16.6 °C 1025.3 in /  34716.7 hPa North 4.8 mph /  7.7 km/h 12.9 mph /  20.8 km/h 89 % 0.0 in /  0 mm
23:52 3.7 °F /  -15.7 °C 2.1 °F /  -16.6 °C 1025.3 in /  34716.7 hPa North 3.2 mph /  5.1 km/h 12.9 mph /  20.8 km/h 89 % 0.0 in /  0 mm
23:57 3.7 °F /  -15.7 °C 2.1 °F /  -16.6 °C 1025.6 in /  34726.8 hPa NNW 6.4 mph /  10.3 km/h 11.3 mph /  18.2 km/h 89 % 0.0 in /  0 mm
Meteo18
Compliments of Weather Underground - 4 mb

Script developed by  Jim McMurry - jmcmurry@mwt.net Adapted for the template by  Wim van der Kuil - Leuven-Template.eu

You find our weather info also at:

European Weather Network

Weather Underground

Equipment we use:

Weather-station
Davis Vue

Weather-program
Meteobridge

Weather-server
Raspberry PI 2 B+

Provider
1 and 1

Davis Vue

Meteobridge

Raspberry PI 2 B+

1 and 1